メインページ
METAR-TAF:

METAR-TAF

空港 :

アルジェ, アルジェリア

ウアリ・ブーメディアン空港

緯度: 36-43N, 経度: 003-15E, 海抜: 25m

現時点の気象観測

当レポートは43分前の01:00(UTC)に作成
南/南東の風 2kt
気温 6°C
湿度 100%
気圧 1025 hPa
視程: 0200m
高度1300ftの雲はほとんどない

METAR: DAAG 180100Z 15002KT 0200 R05/0350N R09/P2000N FG FEW013 06/06 Q1025

時間: 02:43 (01:43 UTC)

予報

当レポートは2時間43分前の23:00(UTC)に作成
予報は18日の 00時(UTC)から 18日の 24時(UTC)まで有効
変向風 2kt
視程: 0500m
高度1300ftの雲はほとんどない
18日の 00時(UTC)から 18日の 05時(UTC)まで一時的に
視程: 3000m
18日の 05時(UTC)から 18日の 08時(UTC)まで徐々に
視程: 7000m
18日の 10時(UTC)から 18日の 13時(UTC)まで徐々に
北東の風 10kt
18日の 18時(UTC)から 18日の 21時(UTC)まで徐々に
変向風 2kt
18日の 20時(UTC)から 18日の 24時(UTC)まで一時的に
の風 10kt

TAF: DAAG 172300Z 1800/1824 VRB02KT 0500 FG FEW013 TEMPO 1800/1805 3000 BR BECMG 1805/1808 7000 NSW BECMG 1810/1813 04010KT BECMG 1818/1821 VRB02KT TEMPO 1820/1824 19010KT

4,000以上の空港の気象観測と天気予報(METAR報とTAF報)

利用可能な観測所は地図上に黄色い丸と赤い丸で示す。

丸の上にカーソルを重ねると観測所名を参照できる。

次にクリックすると気象観測と天気予報を参照できる。

マップの切り替え:黒色「×」印の緑ボタンをクリックして拡大、「-」印の緑ボタンをクリックして縮小、緑色の三角印をクリックして隣りの地図に切り替え


METAR-TAF: